Аэропорт: Борисполь. Киев

ICAO: UKBB

METAR:
2021-04-21 21:30:00
UKBB 212130Z 19003MPS CAVOK 06/04 Q1014 R18L/CLRD// NOSIG
METAR:
2021-04-21 17:02:00
TAF COR UKBB 211702Z 2118/2218 22003G08MPS 9999 BKN020 TX18/2212Z TN04/2202Z TEMPO 2118/2205 2100 -SHRA BR BKN007 SCT015CB BECMG 2205/2207 20005G10MPS SCT030 TEMPO 2208/2218 VRB09G17MPS 1600 TSRA SQ BKN009 BKN025CB